Time;durP1;ratioP1;P1;durP2;ratioP2;P2;SDS_P1;SDS_P2;PMS_P1;PMS_P2;Temp;Humidity;BMP_temperature;BMP_pressure;BME280_temperature;BME280_humidity;BME280_pressure;Samples;Min_cycle;Max_cycle;Signal;HPM_P1;HPM_P2
2021/05/31 00:01:39;;;;;;;0.80;0.80;;;;;;;-144.31;100.00;75515.69;5002394;28;20049;-73
2021/05/31 00:04:04;;;;;;;0.80;0.80;;;;;;;-144.31;100.00;75535.66;4988532;28;20073;-73
2021/05/31 00:06:36;;;;;;;0.80;0.80;;;;;;;-144.31;100.00;75479.72;4986275;28;20452;-71
2021/05/31 00:09:03;;;;;;;0.80;0.80;;;;;;;-144.31;100.00;75509.69;4988498;28;20504;-70
2021/05/31 00:11:29;;;;;;;0.75;0.75;;;;;;;-144.31;100.00;75477.72;5003283;28;20062;-71
2021/05/31 00:13:54;;;;;;;0.85;0.85;;;;;;;-144.31;100.00;75459.75;4988423;28;20386;-71
2021/05/31 00:16:22;;;;;;;0.80;0.80;;;;;;;-144.31;100.00;75421.81;4989229;28;20424;-71
2021/05/31 00:18:50;;;;;;;0.70;0.70;;;;;;;-144.31;100.00;75435.78;4988669;28;20122;-72
2021/05/31 00:21:18;;;;;;;0.80;0.80;;;;;;;-144.31;100.00;75451.78;4987933;28;20034;-72
2021/05/31 00:23:45;;;;;;;0.70;0.70;;;;;;;-144.31;100.00;75399.84;4988382;28;20081;-72
2021/05/31 00:26:13;;;;;;;0.70;0.70;;;;;;;-144.31;100.00;75391.84;4989471;28;20033;-71
2021/05/31 00:28:39;;;;;;;0.80;0.80;;;;;;;-144.31;100.00;75365.88;4987872;28;20128;-74
2021/05/31 00:31:04;;;;;;;0.70;0.70;;;;;;;-144.31;100.00;75395.84;4992635;28;20049;-71
2021/05/31 00:33:30;;;;;;;0.70;0.70;;;;;;;-144.31;100.00;75387.84;5000332;28;20042;-71
2021/05/31 00:35:55;;;;;;;0.70;0.70;;;;;;;-144.31;100.00;75401.84;5003057;28;20037;-72
2021/05/31 00:38:25;;;;;;;;;;;;;;;-144.31;100.00;75431.81;5006478;28;20060;-72
2021/05/31 00:40:53;;;;;;;0.80;0.80;;;;;;;-144.31;100.00;75407.84;5008340;28;19917;-72
2021/05/31 00:43:18;;;;;;;0.80;0.80;;;;;;;-144.31;100.00;75397.84;5006270;28;20061;-71
2021/05/31 00:45:44;;;;;;;0.80;0.80;;;;;;;-144.31;100.00;75391.84;5006752;28;20535;-72
2021/05/31 00:48:09;;;;;;;0.70;0.70;;;;;;;-144.31;100.00;75393.84;5006741;28;20037;-72
2021/05/31 00:50:37;;;;;;;;;;;;;;;-144.31;100.00;75397.84;5008493;28;20092;-71
2021/05/31 00:53:02;;;;;;;2.33;0.80;;;;;;;-144.31;100.00;75399.84;5006973;28;20008;-71
2021/05/31 00:55:28;;;;;;;0.80;0.80;;;;;;;-144.31;100.00;75413.81;5008172;28;20061;-71
2021/05/31 00:57:55;;;;;;;0.70;0.70;;;;;;;-144.31;100.00;75425.81;5007830;28;20022;-74
2021/05/31 01:00:25;;;;;;;0.88;0.88;;;;;;;-144.31;100.00;75453.78;5023264;28;20052;-72
2021/05/31 01:02:50;;;;;;;0.75;0.75;;;;;;;-144.31;100.00;75417.81;5008036;28;20128;-72
2021/05/31 01:05:16;;;;;;;0.65;0.65;;;;;;;-144.31;100.00;75457.75;5008096;28;20486;-73
2021/05/31 01:07:46;;;;;;;0.70;0.70;;;;;;;-144.31;100.00;75457.75;5006354;28;20028;-72
2021/05/31 01:10:16;;;;;;;0.70;0.70;;;;;;;-144.31;100.00;75439.78;5008185;28;20484;-72
2021/05/31 01:13:38;;;;;;;0.70;0.70;;;;;;;-144.31;100.00;75467.75;5006808;28;20056;-72
2021/05/31 01:16:44;;;;;;;0.70;0.70;;;;;;;-144.31;100.00;75427.81;4969888;28;20030;-71
2021/05/31 01:19:24;;;;;;;0.75;0.75;;;;;;;-144.31;100.00;75477.72;5001285;28;20434;-72
2021/05/31 01:22:09;;;;;;;0.70;0.70;;;;;;;-144.31;100.00;75465.75;5008529;28;20054;-75
2021/05/31 01:24:49;;;;;;;0.80;0.80;;;;;;;-144.31;100.00;75477.72;5008972;28;20107;-72
2021/05/31 01:27:21;;;;;;;0.70;0.70;;;;;;;-144.31;100.00;75455.78;5007932;28;20369;-72
2021/05/31 01:29:58;;;;;;;0.70;0.70;;;;;;;-144.31;100.00;75497.72;5002940;28;20784;-72
2021/05/31 01:32:29;;;;;;;0.80;0.80;;;;;;;-144.31;100.00;75485.72;5010246;28;20092;-71
2021/05/31 01:34:57;;;;;;;0.73;0.73;;;;;;;-144.31;100.00;75477.72;5011683;28;20088;-72
2021/05/31 01:37:28;;;;;;;0.70;0.70;;;;;;;-144.31;100.00;75513.69;5010154;28;20037;-72
2021/05/31 01:39:56;;;;;;;0.80;0.80;;;;;;;-144.31;100.00;75497.72;5011684;28;20034;-72
2021/05/31 01:42:26;;;;;;;0.70;0.70;;;;;;;-144.31;100.00;75521.69;5009898;28;20108;-71
2021/05/31 01:44:53;;;;;;;0.80;0.80;;;;;;;-144.31;100.00;75491.72;5012189;28;20046;-73
2021/05/31 01:47:19;;;;;;;0.80;0.80;;;;;;;-144.31;100.00;75501.69;5010693;28;20423;-71
2021/05/31 01:49:45;;;;;;;0.70;0.70;;;;;;;-144.31;100.00;75489.72;5012016;28;20037;-73
2021/05/31 01:52:15;;;;;;;0.70;0.70;;;;;;;-144.31;100.00;75525.66;5010261;28;20030;-72
2021/05/31 01:54:41;;;;;;;0.70;0.70;;;;;;;-144.31;100.00;75539.66;5011220;28;20369;-73
2021/05/31 01:57:08;;;;;;;0.70;0.70;;;;;;;-144.31;100.00;75515.69;5011207;28;20523;-72
2021/05/31 01:59:36;;;;;;;0.70;0.70;;;;;;;-144.31;100.00;75489.72;5010215;28;20801;-72
2021/05/31 02:02:03;;;;;;;0.80;0.80;;;;;;;-144.31;100.00;75485.72;5011072;28;20045;-71
2021/05/31 02:04:29;;;;;;;0.75;0.75;;;;;;;-144.31;100.00;75497.72;5011378;28;20067;-71
2021/05/31 02:06:54;;;;;;;0.80;0.80;;;;;;;-144.31;100.00;75509.69;4990418;28;20034;-72
2021/05/31 02:09:25;;;;;;;0.80;0.80;;;;;;;-144.31;100.00;75489.72;4992345;28;20034;-72
2021/05/31 02:12:07;;;;;;;0.80;0.80;;;;;;;-144.31;100.00;75525.66;4999645;28;20173;-71
2021/05/31 02:14:51;;;;;;;0.80;0.80;;;;;;;-144.31;100.00;75537.66;5009073;28;20041;-73
2021/05/31 02:17:45;;;;;;;0.70;0.70;;;;;;;-144.31;100.00;75545.66;4997859;28;20117;-72
2021/05/31 02:20:13;;;;;;;0.70;0.70;;;;;;;-144.31;100.00;75559.63;4989831;28;20133;-72
2021/05/31 02:22:49;;;;;;;0.80;0.80;;;;;;;-144.31;100.00;75525.66;4990986;28;20042;-72
2021/05/31 02:25:16;;;;;;;0.80;0.80;;;;;;;-144.31;100.00;75537.66;4991279;28;20030;-72
2021/05/31 02:27:49;;;;;;;0.70;0.70;;;;;;;-144.31;100.00;75557.63;4990580;28;20426;-72
2021/05/31 02:30:16;;;;;;;0.80;0.80;;;;;;;-144.31;100.00;75567.63;4995268;28;20076;-73
2021/05/31 02:32:56;;;;;;;0.70;0.70;;;;;;;-144.31;100.00;75555.63;4995614;28;20057;-75
2021/05/31 02:35:26;;;;;;;0.70;0.70;;;;;;;-144.31;100.00;75567.63;4990580;28;20038;-73
2021/05/31 02:37:52;;;;;;;0.70;0.70;;;;;;;-144.31;100.00;75543.66;4991945;28;20042;-74
2021/05/31 02:40:21;;;;;;;0.70;0.70;;;;;;;-144.31;100.00;75575.59;4991875;28;20026;-72
2021/05/31 02:42:52;;;;;;;0.70;0.70;;;;;;;-144.31;100.00;75547.63;4990280;28;20030;-72
2021/05/31 02:45:20;;;;;;;0.80;0.80;;;;;;;-144.31;100.00;75551.63;4990681;28;20030;-72
2021/05/31 02:47:47;;;;;;;0.80;0.80;;;;;;;-144.31;100.00;75573.59;4989628;28;20045;-72
2021/05/31 02:50:13;;;;;;;;;;;;;;;-144.31;100.00;75545.66;4991288;28;20026;-72
2021/05/31 02:52:41;;;;;;;0.80;0.80;;;;;;;-144.31;100.00;75559.63;4990743;28;19917;-72
2021/05/31 02:55:12;;;;;;;0.80;0.80;;;;;;;-144.31;100.00;75555.63;4991237;28;20038;-73
2021/05/31 02:57:38;;;;;;;0.73;0.73;;;;;;;-144.31;100.00;75547.63;4990110;28;20057;-72
2021/05/31 03:00:06;;;;;;;0.80;0.80;;;;;;;-144.31;100.00;75569.63;4989006;28;20459;-73
2021/05/31 03:02:34;;;;;;;0.75;0.75;;;;;;;-144.31;100.00;75595.56;5003833;28;20497;-72
2021/05/31 03:05:00;;;;;;;0.80;0.80;;;;;;;-144.31;100.00;75581.59;5007086;28;20562;-71
2021/05/31 03:07:28;;;;;;;0.80;0.80;;;;;;;-144.31;100.00;75573.59;5017317;28;20022;-72
2021/05/31 03:09:54;;;;;;;1.02;1.00;;;;;;;-144.31;100.00;75573.59;5005124;28;20543;-72
2021/05/31 03:12:21;;;;;;;0.90;0.90;;;;;;;-144.31;100.00;75565.63;5008174;28;20037;-72
2021/05/31 03:14:47;;;;;;;0.80;0.80;;;;;;;-144.31;100.00;75575.59;5008377;28;20129;-73
2021/05/31 03:17:14;;;;;;;0.70;0.70;;;;;;;-144.31;100.00;75633.53;5008088;28;20038;-72
2021/05/31 03:19:42;;;;;;;0.80;0.80;;;;;;;-144.31;100.00;75579.59;5009756;28;20052;-72
2021/05/31 03:22:07;;;;;;;0.80;0.80;;;;;;;-144.31;100.00;75589.59;5007289;28;20037;-72
2021/05/31 03:24:33;;;;;;;0.75;0.75;;;;;;;-144.31;100.00;75583.59;5008513;28;20030;-72
2021/05/31 03:26:58;;;;;;;0.80;0.80;;;;;;;-144.31;100.00;75633.53;5009514;28;20058;-72
2021/05/31 03:29:24;;;;;;;0.80;0.80;;;;;;;-144.31;100.00;75603.56;5007782;28;20053;-71
2021/05/31 03:31:49;;;;;;;0.70;0.70;;;;;;;-144.31;100.00;75593.59;5007128;28;20136;-72
2021/05/31 03:34:15;;;;;;;0.70;0.70;;;;;;;-144.31;100.00;75661.50;5007991;28;20046;-72
2021/05/31 03:36:41;;;;;;;0.63;0.63;;;;;;;-144.31;100.00;75685.47;5007714;28;20124;-71
2021/05/31 03:39:07;;;;;;;0.80;0.80;;;;;;;-144.31;100.00;75685.47;4991525;28;20481;-71
2021/05/31 03:41:33;;;;;;;0.88;0.88;;;;;;;-144.31;100.00;75661.50;5008222;28;20037;-73
2021/05/31 03:43:59;;;;;;;0.73;0.73;;;;;;;-144.31;100.00;75689.44;5007732;28;20033;-73
2021/05/31 03:46:24;;;;;;;0.70;0.70;;;;;;;-144.31;100.00;75695.44;5007591;28;20496;-71
2021/05/31 03:48:52;;;;;;;0.70;0.70;;;;;;;-144.31;100.00;75705.44;5009633;28;20041;-71
2021/05/31 03:51:18;;;;;;;0.80;0.80;;;;;;;-144.31;100.00;75703.44;5007106;28;20077;-72
2021/05/31 03:53:48;;;;;;;0.68;0.68;;;;;;;-144.31;100.00;75647.50;5004532;28;20030;-72
2021/05/31 03:56:13;;;;;;;0.75;0.75;;;;;;;-144.31;100.00;75691.44;4996675;28;20034;-72
2021/05/31 03:58:42;;;;;;;0.70;0.70;;;;;;;-144.31;100.00;75697.44;5008156;28;20041;-73
2021/05/31 04:01:09;;;;;;;0.80;0.80;;;;;;;-144.31;100.00;75673.47;5007280;28;20068;-74
2021/05/31 04:03:35;;;;;;;0.70;0.70;;;;;;;-144.31;100.00;75623.53;5008761;28;20451;-72
2021/05/31 04:11:48;;;;;;;0.73;0.73;;;;;;;-144.31;100.00;75605.56;5007837;28;20057;-72
2021/05/31 04:14:15;;;;;;;0.80;0.80;;;;;;;-144.31;100.00;75585.59;5009935;28;20030;-72
2021/05/31 04:16:48;;;;;;;;;;;;;;;-144.31;100.00;75565.63;5009090;28;20052;-72
2021/05/31 04:19:17;;;;;;;0.70;0.70;;;;;;;-144.31;100.00;75581.59;5023399;28;20280;-72
2021/05/31 04:21:46;;;;;;;0.70;0.70;;;;;;;-144.31;100.00;75577.59;5006834;28;20030;-71
2021/05/31 04:24:14;;;;;;;0.70;0.70;;;;;;;-144.31;100.00;75567.63;5008447;28;20029;-72
2021/05/31 04:26:41;;;;;;;0.70;0.70;;;;;;;-144.31;100.00;75585.59;5023516;28;20033;-71
2021/05/31 04:29:09;;;;;;;0.80;0.80;;;;;;;-144.31;100.00;75573.59;5008926;28;20064;-73
2021/05/31 04:31:35;;;;;;;0.77;0.77;;;;;;;-144.31;100.00;75537.66;5008593;28;20065;-72
2021/05/31 04:34:04;;;;;;;0.75;0.75;;;;;;;-144.31;100.00;75497.72;5008617;28;20151;-72
2021/05/31 04:36:33;;;;;;;0.80;0.80;;;;;;;-144.31;100.00;75513.69;5008661;28;20037;-72
2021/05/31 04:39:00;;;;;;;0.85;0.85;;;;;;;-144.31;100.00;75515.69;5008453;28;20033;-72
2021/05/31 04:41:25;;;;;;;0.70;0.70;;;;;;;-144.31;100.00;75483.72;5006930;28;20042;-72
2021/05/31 04:43:51;;;;;;;0.80;0.80;;;;;;;-144.31;100.00;75505.69;5001428;28;20037;-72
2021/05/31 04:46:20;;;;;;;0.90;0.90;;;;;;;-144.31;100.00;75493.72;5002454;28;20168;-71
2021/05/31 04:48:48;;;;;;;0.70;0.70;;;;;;;-144.31;100.00;75497.72;5004623;28;20061;-72
2021/05/31 04:51:14;;;;;;;0.77;0.77;;;;;;;-144.31;100.00;75481.72;5008566;28;20403;-74
2021/05/31 04:53:41;;;;;;;0.70;0.70;;;;;;;-144.31;100.00;75437.78;5007717;28;20030;-73
2021/05/31 04:56:09;;;;;;;;;;;;;;;-144.31;100.00;75449.78;5009025;28;20509;-71
2021/05/31 04:58:35;;;;;;;0.95;0.82;;;;;;;-144.31;100.00;75463.75;5007374;28;19949;-71
2021/05/31 05:01:03;;;;;;;0.80;0.80;;;;;;;-144.31;100.00;75427.81;5008167;28;20034;-73
2021/05/31 05:03:28;;;;;;;0.70;0.70;;;;;;;-144.31;100.00;75401.84;5007897;28;20254;-72
2021/05/31 05:05:54;;;;;;;0.70;0.70;;;;;;;-144.31;100.00;75405.84;5005649;28;20048;-71
2021/05/31 05:08:22;;;;;;;0.75;0.75;;;;;;;-144.31;100.00;75421.81;4989987;28;20042;-71
2021/05/31 05:10:47;;;;;;;0.70;0.70;;;;;;;-144.31;100.00;75399.84;5007362;28;20045;-71
2021/05/31 05:13:15;;;;;;;0.80;0.80;;;;;;;-144.31;100.00;75373.88;5005238;28;20026;-74
2021/05/31 05:15:41;;;;;;;0.65;0.65;;;;;;;-144.31;100.00;75355.91;5006131;28;20049;-72
2021/05/31 05:18:06;;;;;;;0.70;0.70;;;;;;;-144.31;100.00;75303.97;5006115;28;20069;-72
2021/05/31 05:20:33;;;;;;;0.70;0.70;;;;;;;-144.31;100.00;75292.00;5006429;28;20034;-73
2021/05/31 05:23:01;;;;;;;0.70;0.70;;;;;;;-144.31;100.00;75280.00;5008112;28;20450;-73
2021/05/31 05:25:30;;;;;;;0.70;0.70;;;;;;;-144.31;100.00;75276.03;5008288;28;20523;-72
2021/05/31 05:27:57;;;;;;;0.70;0.70;;;;;;;-144.31;100.00;75254.06;5008493;28;20058;-74
2021/05/31 05:30:26;;;;;;;0.70;0.70;;;;;;;-144.31;100.00;75218.09;5004440;28;20106;-74
2021/05/31 05:32:59;;;;;;;0.63;0.63;;;;;;;-144.31;100.00;75222.09;5004540;28;20025;-72
2021/05/31 05:38:17;;;;;;;0.63;0.63;;;;;;;-144.31;100.00;75186.16;5004465;28;20080;-72
2021/05/31 05:48:52;;;;;;;0.60;0.60;;;;;;;-144.31;100.00;75098.28;4992176;28;20026;-72
2021/05/31 05:51:18;;;;;;;0.70;0.70;;;;;;;-144.31;100.00;75088.28;5009655;28;20087;-72
2021/05/31 05:53:46;;;;;;;0.60;0.60;;;;;;;-144.31;100.00;75062.31;5001479;28;20526;-73
2021/05/31 05:56:18;;;;;;;0.60;0.60;;;;;;;-144.31;100.00;75052.34;5003947;28;20045;-72
2021/05/31 05:58:45;;;;;;;0.80;0.80;;;;;;;-144.31;100.00;75028.38;5005967;28;20037;-76
2021/05/31 06:01:11;;;;;;;0.60;0.60;;;;;;;-144.31;100.00;74996.41;5007054;28;20461;-73
2021/05/31 06:03:38;;;;;;;0.70;0.70;;;;;;;-144.31;100.00;74966.47;5022291;28;20484;-70
2021/05/31 06:06:04;;;;;;;0.60;0.60;;;;;;;-144.31;100.00;74956.47;5008622;28;20041;-69
2021/05/31 06:08:30;;;;;;;0.60;0.60;;;;;;;-144.31;100.00;74942.50;5010435;28;20084;-69
2021/05/31 06:10:56;;;;;;;0.60;0.60;;;;;;;-144.31;100.00;74904.56;5016494;28;20037;-69
2021/05/31 06:13:25;;;;;;;0.57;0.57;;;;;;;-144.31;100.00;74896.56;5010459;28;20029;-69
2021/05/31 06:15:52;;;;;;;0.50;0.50;;;;;;;-144.31;100.00;74880.59;5007655;28;20037;-70
2021/05/31 06:18:17;;;;;;;0.50;0.50;;;;;;;-144.31;100.00;74874.59;5009921;28;20034;-74
2021/05/31 06:20:43;;;;;;;0.60;0.60;;;;;;;-144.31;100.00;74878.59;5024049;28;20562;-75
2021/05/31 06:23:09;;;;;;;0.60;0.60;;;;;;;-144.31;100.00;74844.66;5012891;28;20030;-76
2021/05/31 06:25:38;;;;;;;0.50;0.50;;;;;;;-144.31;100.00;74830.66;5000074;28;20108;-74
2021/05/31 06:28:05;;;;;;;0.50;0.50;;;;;;;-144.31;100.00;74820.69;4995327;28;20061;-75
2021/05/31 06:30:31;;;;;;;0.50;0.50;;;;;;;-144.31;100.00;74814.69;5001472;28;20087;-75
2021/05/31 06:32:57;;;;;;;0.50;0.50;;;;;;;-144.31;100.00;74810.69;5007262;28;20030;-75
2021/05/31 06:35:24;;;;;;;0.60;0.60;;;;;;;-144.31;100.00;74788.75;5007255;28;20038;-75
2021/05/31 06:37:50;;;;;;;0.55;0.55;;;;;;;-144.31;100.00;74818.69;4996178;28;20061;-70
2021/05/31 06:40:16;;;;;;;0.50;0.50;;;;;;;-144.31;100.00;74778.75;5018420;28;20065;-70
2021/05/31 06:42:43;;;;;;;0.40;0.40;;;;;;;-144.31;100.00;74768.78;4998485;28;20231;-70
2021/05/31 06:45:16;;;;;;;0.70;0.60;;;;;;;-144.31;100.00;74792.72;5002611;28;20057;-71
2021/05/31 06:47:42;;;;;;;0.50;0.50;;;;;;;-144.31;100.00;74762.78;5016273;28;20046;-75
2021/05/31 06:50:08;;;;;;;0.40;0.40;;;;;;;-144.31;100.00;74762.78;4990678;28;20223;-73
2021/05/31 06:52:34;;;;;;;0.50;0.50;;;;;;;-144.31;100.00;74772.75;5005019;28;20037;-76
2021/05/31 06:55:00;;;;;;;0.50;0.50;;;;;;;-144.31;100.00;74744.81;5005100;28;20080;-72
2021/05/31 06:57:28;;;;;;;0.57;0.57;;;;;;;-144.31;100.00;74756.78;5007325;28;20029;-73
2021/05/31 06:59:54;;;;;;;0.50;0.50;;;;;;;-144.31;100.00;74714.84;5008961;28;20060;-76
2021/05/31 07:02:21;;;;;;;0.50;0.50;;;;;;;-144.31;100.00;74736.81;5006983;28;20127;-74
2021/05/31 07:04:51;;;;;;;0.47;0.47;;;;;;;-144.31;100.00;74688.88;5007095;28;20025;-76
2021/05/31 07:07:19;;;;;;;0.52;0.52;;;;;;;-144.31;100.00;74698.88;5024496;28;20510;-75
2021/05/31 07:09:47;;;;;;;1.25;0.50;;;;;;;-144.31;100.00;74712.84;5001832;28;20045;-74
2021/05/31 07:12:15;;;;;;;0.50;0.50;;;;;;;-144.31;100.00;74678.91;5004180;28;20045;-75
2021/05/31 07:14:44;;;;;;;0.43;0.43;;;;;;;-144.31;100.00;74646.97;5003002;28;20045;-74
2021/05/31 07:17:09;;;;;;;0.50;0.50;;;;;;;-144.31;100.00;74636.97;5003510;28;20132;-75
2021/05/31 07:19:35;;;;;;;0.40;0.40;;;;;;;-144.31;100.00;74611.00;5006497;28;20051;-74
2021/05/31 07:22:01;;;;;;;0.45;0.45;;;;;;;-144.31;100.00;74583.06;5001642;28;20142;-75
2021/05/31 07:24:29;;;;;;;0.50;0.50;;;;;;;-144.31;100.00;74636.97;5000754;28;20036;-75
2021/05/31 07:26:57;;;;;;;0.40;0.40;;;;;;;-144.31;100.00;74603.03;5004775;28;20025;-74
2021/05/31 07:29:25;;;;;;;0.47;0.47;;;;;;;-144.31;100.00;74569.09;4984570;28;20503;-75
2021/05/31 07:31:51;;;;;;;0.40;0.40;;;;;;;-144.31;100.00;74557.09;4987450;28;20078;-75
2021/05/31 07:34:16;;;;;;;0.50;0.50;;;;;;;-144.31;100.00;74523.16;4987860;28;20081;-75
2021/05/31 07:36:42;;;;;;;0.50;0.50;;;;;;;-144.31;100.00;74541.13;5006179;28;20070;-75
2021/05/31 07:39:10;;;;;;;0.50;0.50;;;;;;;-144.31;100.00;74569.09;5008291;28;20026;-75
2021/05/31 07:41:38;;;;;;;0.40;0.40;;;;;;;-144.31;100.00;74509.19;4991286;28;20531;-75
2021/05/31 07:44:06;;;;;;;0.43;0.43;;;;;;;-144.31;100.00;74523.16;4999163;28;20033;-75
2021/05/31 07:46:34;;;;;;;0.40;0.40;;;;;;;-144.31;100.00;74527.16;5000531;28;20091;-75
2021/05/31 07:49:02;;;;;;;0.40;0.40;;;;;;;-144.31;100.00;74483.22;5006940;28;20081;-77
2021/05/31 07:51:31;;;;;;;0.40;0.40;;;;;;;-144.31;100.00;74473.22;5005100;28;20041;-77
2021/05/31 07:53:58;;;;;;;0.40;0.40;;;;;;;-144.31;100.00;74535.13;5005654;28;20546;-76
2021/05/31 07:56:27;;;;;;;0.40;0.40;;;;;;;-144.31;100.00;74445.28;5000828;28;20087;-74
2021/05/31 07:58:55;;;;;;;0.40;0.40;;;;;;;-144.31;100.00;74453.25;4999032;28;20030;-78
2021/05/31 08:01:21;;;;;;;0.45;0.40;;;;;;;-144.31;100.00;74435.28;5004080;28;20038;-78
2021/05/31 08:03:47;;;;;;;0.52;0.40;;;;;;;-144.31;100.00;74407.34;4982275;28;20042;-77
2021/05/31 08:06:13;;;;;;;0.40;0.40;;;;;;;-144.31;100.00;74447.28;5001367;28;20042;-76
2021/05/31 08:08:39;;;;;;;0.40;0.40;;;;;;;-144.31;100.00;74445.28;5003109;28;20041;-77
2021/05/31 08:11:07;;;;;;;0.40;0.40;;;;;;;-144.31;100.00;74435.28;5000037;28;20117;-77
2021/05/31 08:13:33;;;;;;;0.40;0.40;;;;;;;-144.31;100.00;74431.31;5000281;28;20638;-76
2021/05/31 08:15:59;;;;;;;0.40;0.40;;;;;;;-144.31;100.00;74463.25;4992675;28;20060;-76
2021/05/31 08:18:24;;;;;;;0.40;0.40;;;;;;;-144.31;100.00;74499.19;5003371;28;20056;-76
2021/05/31 08:20:50;;;;;;;0.47;0.47;;;;;;;-144.31;100.00;74465.25;4993020;28;20377;-76
2021/05/31 08:23:16;;;;;;;3.40;1.40;;;;;;;-144.31;100.00;74473.22;5003557;28;20557;-76
2021/05/31 08:25:43;;;;;;;1.88;0.70;;;;;;;-144.31;100.00;74455.25;5000976;28;20046;-77
2021/05/31 08:28:08;;;;;;;0.45;0.45;;;;;;;-144.31;100.00;74401.34;4998871;28;20128;-75
2021/05/31 08:30:37;;;;;;;0.63;0.50;;;;;;;-144.31;100.00;74465.25;4999344;28;20148;-76
2021/05/31 08:33:05;;;;;;;2.05;0.85;;;;;;;-144.31;100.00;74361.41;5017002;28;20181;-76
2021/05/31 08:35:32;;;;;;;2.20;0.88;;;;;;;-144.31;100.00;74309.50;5003098;28;20472;-76
2021/05/31 08:37:57;;;;;;;0.50;0.50;;;;;;;-144.31;100.00;74433.31;4998503;28;20030;-76
2021/05/31 08:40:24;;;;;;;0.32;0.32;;;;;;;-144.31;100.00;74355.44;4998741;28;20038;-73
2021/05/31 08:42:50;;;;;;;0.50;0.50;;;;;;;-144.31;100.00;74333.47;4997224;28;20034;-75
2021/05/31 08:45:20;;;;;;;0.40;0.40;;;;;;;-144.31;100.00;74319.50;5006114;28;20049;-73
2021/05/31 08:47:48;;;;;;;0.40;0.40;;;;;;;-144.31;100.00;74291.53;4998786;28;20034;-70
2021/05/31 08:50:19;;;;;;;0.40;0.40;;;;;;;-144.31;100.00;74293.53;5001088;28;20030;-74
2021/05/31 08:52:46;;;;;;;0.30;0.30;;;;;;;-144.31;100.00;74249.59;4997013;28;20144;-74
2021/05/31 08:55:13;;;;;;;0.40;0.40;;;;;;;-144.31;100.00;74181.72;5001028;28;20482;-73
2021/05/31 08:57:39;;;;;;;0.40;0.40;;;;;;;-144.31;100.00;74227.63;4994010;28;20053;-75
2021/05/31 09:00:07;;;;;;;0.30;0.30;;;;;;;-144.31;100.00;74199.69;5002981;28;20030;-73
2021/05/31 09:02:35;;;;;;;0.50;0.50;;;;;;;-144.31;100.00;74291.53;4998093;28;20053;-75
2021/05/31 09:05:00;;;;;;;0.40;0.40;;;;;;;-144.31;100.00;74267.56;5004091;28;20041;-77
2021/05/31 09:07:26;;;;;;;0.32;0.32;;;;;;;-144.31;99.99;74203.69;5000131;28;20080;-75
2021/05/31 09:09:54;;;;;;;0.30;0.30;;;;;;;-144.31;94.58;74307.50;4999242;28;20064;-75
2021/05/31 09:12:27;;;;;;;0.40;0.40;;;;;;;-144.31;94.36;74197.69;5007812;28;20312;-74
2021/05/31 09:14:58;;;;;;;0.50;0.50;;;;;;;-144.31;87.54;74157.75;5002542;28;20042;-74
2021/05/31 09:17:33;;;;;;;1.50;1.10;;;;;;;-144.31;85.56;74209.66;5000908;28;20034;-75
2021/05/31 09:19:59;;;;;;;0.32;0.32;;;;;;;-144.31;80.57;74151.78;4986605;28;20309;-75
2021/05/31 09:22:26;;;;;;;0.40;0.40;;;;;;;-144.31;77.07;74131.81;4986716;28;20108;-75
2021/05/31 09:24:59;;;;;;;0.40;0.40;;;;;;;-144.31;74.09;74111.84;4985380;28;20484;-73
2021/05/31 09:27:26;;;;;;;0.32;0.32;;;;;;;-144.31;70.99;74109.84;4984119;28;20052;-75
2021/05/31 09:29:57;;;;;;;0.63;0.40;;;;;;;-144.31;74.34;74213.66;5001400;28;20167;-75
2021/05/31 09:32:25;;;;;;;0.40;0.40;;;;;;;-144.31;67.76;74227.63;4992764;28;20026;-74
2021/05/31 09:35:04;;;;;;;0.57;0.57;;;;;;;-144.31;65.51;74169.75;4998491;28;20044;-74
2021/05/31 09:37:30;;;;;;;0.32;0.32;;;;;;;-144.31;65.17;74117.81;4999865;28;20484;-74
2021/05/31 09:40:03;;;;;;;0.30;0.30;;;;;;;-144.31;62.99;74073.91;5001383;28;20038;-74
2021/05/31 09:42:30;;;;;;;0.40;0.40;;;;;;;-144.31;64.02;74175.72;5009601;28;20303;-74
2021/05/31 09:45:09;;;;;;;0.57;0.57;;;;;;;-144.31;62.87;74149.78;5010224;28;20041;-76
2021/05/31 09:47:38;;;;;;;0.40;0.40;;;;;;;-144.31;58.38;74129.81;5006343;28;20033;-75
2021/05/31 09:50:05;;;;;;;0.40;0.40;;;;;;;-144.31;56.27;74051.94;5009634;28;20278;-76
2021/05/31 09:52:31;;;;;;;;;;;;;;;-144.31;56.48;74139.78;5021751;28;20052;-76
2021/05/31 09:55:04;;;;;;;0.20;0.20;;;;;;;-144.31;57.25;74093.88;5009972;28;20363;-76
2021/05/31 09:57:31;;;;;;;0.20;0.20;;;;;;;-144.31;55.99;74047.94;5011194;28;20053;-75
2021/05/31 10:00:02;;;;;;;0.32;0.32;;;;;;;-144.31;55.54;73990.03;5035856;28;20392;-76
2021/05/31 10:10:30;;;;;;;0.47;0.38;;;;;;;-144.31;54.97;73950.13;5006181;28;20496;-75
2021/05/31 10:12:57;;;;;;;0.52;0.52;;;;;;;-144.31;53.93;73962.09;5018852;28;20508;-78
2021/05/31 10:15:25;;;;;;;1.60;1.20;;;;;;;-144.31;54.86;73876.25;5005622;28;20061;-75
2021/05/31 10:17:57;;;;;;;0.30;0.30;;;;;;;-144.31;54.00;74004.03;5000719;28;20395;-76
2021/05/31 10:20:23;;;;;;;0.30;0.30;;;;;;;-144.31;52.76;73972.06;5002877;28;20065;-72
2021/05/31 10:22:49;;;;;;;0.30;0.30;;;;;;;-144.31;52.90;73948.13;5001455;28;20029;-76
2021/05/31 10:25:19;;;;;;;0.25;0.25;;;;;;;-144.31;49.17;74012.00;5007581;28;20092;-77
2021/05/31 10:27:50;;;;;;;0.20;0.20;;;;;;;-144.31;48.24;73886.22;5003705;28;20030;-75
2021/05/31 10:30:20;;;;;;;0.30;0.30;;;;;;;-144.31;49.61;74004.03;5019592;28;20030;-75
2021/05/31 10:32:46;;;;;;;0.30;0.30;;;;;;;-144.31;47.58;73996.03;5005909;28;20042;-77
2021/05/31 10:35:24;;;;;;;0.30;0.30;;;;;;;-144.31;47.57;73886.22;5023559;28;20057;-76
2021/05/31 10:37:57;;;;;;;0.20;0.20;;;;;;;-144.31;47.05;73768.44;5003637;28;20421;-75
2021/05/31 10:40:41;;;;;;;0.30;0.30;;;;;;;-144.31;44.62;73744.47;5003253;28;20488;-76
2021/05/31 10:43:12;;;;;;;0.45;0.45;;;;;;;-144.31;46.64;73870.25;4996841;28;20040;-75
2021/05/31 10:45:40;;;;;;;0.28;0.28;;;;;;;-144.31;50.42;73906.19;4991054;28;20113;-77
2021/05/31 10:48:15;;;;;;;0.20;0.20;;;;;;;-144.31;48.45;73790.41;5017976;28;20030;-75
2021/05/31 10:50:48;;;;;;;0.30;0.30;;;;;;;-144.31;45.87;73760.44;5002044;28;20168;-76
2021/05/31 10:53:32;;;;;;;0.35;0.35;;;;;;;-144.31;44.87;73820.34;5002317;28;20033;-75
2021/05/31 10:56:03;;;;;;;0.20;0.20;;;;;;;-144.31;45.28;73976.06;5008603;28;20519;-75
2021/05/31 10:58:36;;;;;;;0.30;0.30;;;;;;;-144.31;48.38;73794.38;5010363;28;20034;-79
2021/05/31 11:01:10;;;;;;;0.20;0.20;;;;;;;-144.31;47.87;73704.56;4996850;28;20476;-75
2021/05/31 11:04:06;;;;;;;0.30;0.30;;;;;;;-144.31;44.82;73832.31;4997312;28;20491;-76
2021/05/31 11:06:37;;;;;;;0.20;0.20;;;;;;;-144.31;46.70;73776.41;4979988;28;20140;-77
2021/05/31 11:09:23;;;;;;;0.32;0.32;;;;;;;-144.31;45.69;73698.56;5001153;28;20139;-76
2021/05/31 11:11:54;;;;;;;0.20;0.20;;;;;;;-144.31;43.49;73648.66;5006291;28;20069;-78
2021/05/31 11:14:40;;;;;;;0.30;0.30;;;;;;;-144.31;43.55;73638.66;5008224;28;20052;-75
2021/05/31 11:17:14;;;;;;;0.20;0.20;;;;;;;-144.31;44.25;73720.53;5023269;28;20129;-77
2021/05/31 11:19:50;;;;;;;0.55;0.40;;;;;;;-144.31;49.45;73812.34;5007580;28;20124;-80
2021/05/31 11:22:22;;;;;;;0.35;0.35;;;;;;;-144.31;47.80;73684.59;5009568;28;20037;-75
2021/05/31 11:25:09;;;;;;;0.28;0.28;;;;;;;-144.31;44.48;73728.50;5008004;28;20097;-77
2021/05/31 11:27:43;;;;;;;0.30;0.30;;;;;;;-144.31;42.08;73488.94;5022540;28;20038;-76
2021/05/31 11:30:17;;;;;;;0.22;0.22;;;;;;;-144.31;43.27;73534.88;5021978;28;20040;-72
2021/05/31 11:32:43;;;;;;;0.20;0.20;;;;;;;-144.31;43.38;73700.56;5003412;28;20506;-77
2021/05/31 11:35:12;;;;;;;0.87;0.40;;;;;;;-144.31;42.13;73596.75;5003292;28;20713;-77
2021/05/31 11:37:38;;;;;;;0.30;0.30;;;;;;;-144.31;42.30;73576.78;5003711;28;20041;-76
2021/05/31 11:40:16;;;;;;;0.20;0.20;;;;;;;-144.31;35.27;73265.38;5002055;28;20033;-76
2021/05/31 11:42:47;;;;;;;0.13;0.13;;;;;;;-144.31;34.63;73217.47;4988163;28;20057;-77
2021/05/31 11:45:13;;;;;;;0.20;0.20;;;;;;;-144.31;32.46;73013.88;5001331;28;20026;-77